sensor_id;sensor_type;location;lat;lon;timestamp;pressure;altitude;pressure_sealevel;temperature;humidity
73103;BME280;61294;65.988;29.172;2024-02-16T00:01:20;99022.56;;;-13.97;100.00
73103;BME280;61294;65.988;29.172;2024-02-16T00:03:46;99034.78;;;-13.93;100.00
73103;BME280;61294;65.988;29.172;2024-02-16T00:06:12;99040.75;;;-13.93;100.00
73103;BME280;61294;65.988;29.172;2024-02-16T00:08:38;99004.56;;;-14.09;100.00
73103;BME280;61294;65.988;29.172;2024-02-16T00:11:05;99035.97;;;-13.90;100.00
73103;BME280;61294;65.988;29.172;2024-02-16T00:13:30;99002.63;;;-14.03;100.00
73103;BME280;61294;65.988;29.172;2024-02-16T00:15:56;99000.25;;;-14.01;100.00
73103;BME280;61294;65.988;29.172;2024-02-16T00:18:22;99038.19;;;-13.84;100.00
73103;BME280;61294;65.988;29.172;2024-02-16T00:20:49;99024.06;;;-13.82;100.00
73103;BME280;61294;65.988;29.172;2024-02-16T00:23:15;99034.34;;;-13.80;100.00
73103;BME280;61294;65.988;29.172;2024-02-16T00:25:40;99029.41;;;-13.79;100.00
73103;BME280;61294;65.988;29.172;2024-02-16T00:28:07;99001.72;;;-13.95;100.00
73103;BME280;61294;65.988;29.172;2024-02-16T00:30:33;99021.97;;;-13.77;100.00
73103;BME280;61294;65.988;29.172;2024-02-16T00:32:58;99032.22;;;-13.76;100.00
73103;BME280;61294;65.988;29.172;2024-02-16T00:35:26;98987.69;;;-13.91;100.00
73103;BME280;61294;65.988;29.172;2024-02-16T00:37:52;98982.22;;;-13.96;100.00
73103;BME280;61294;65.988;29.172;2024-02-16T00:40:17;99030.72;;;-13.74;100.00
73103;BME280;61294;65.988;29.172;2024-02-16T00:42:43;99028.19;;;-13.74;100.00
73103;BME280;61294;65.988;29.172;2024-02-16T00:45:09;99025.22;;;-13.69;100.00
73103;BME280;61294;65.988;29.172;2024-02-16T00:47:35;99019.25;;;-13.70;100.00
73103;BME280;61294;65.988;29.172;2024-02-16T00:50:02;98983.69;;;-13.98;100.00
73103;BME280;61294;65.988;29.172;2024-02-16T00:52:29;99010.91;;;-13.69;100.00
73103;BME280;61294;65.988;29.172;2024-02-16T00:54:55;98991.28;;;-13.80;100.00
73103;BME280;61294;65.988;29.172;2024-02-16T00:57:20;99022.50;;;-13.62;100.00
73103;BME280;61294;65.988;29.172;2024-02-16T00:59:46;99018.34;;;-13.62;100.00
73103;BME280;61294;65.988;29.172;2024-02-16T01:02:12;99008.53;;;-13.67;100.00
73103;BME280;61294;65.988;29.172;2024-02-16T01:04:38;99002.25;;;-13.62;100.00
73103;BME280;61294;65.988;29.172;2024-02-16T01:07:04;99012.97;;;-13.56;100.00
73103;BME280;61294;65.988;29.172;2024-02-16T01:09:29;99020.88;;;-13.53;100.00
73103;BME280;61294;65.988;29.172;2024-02-16T01:11:57;99007.78;;;-13.58;100.00
73103;BME280;61294;65.988;29.172;2024-02-16T01:14:22;99016.81;;;-13.51;100.00
73103;BME280;61294;65.988;29.172;2024-02-16T01:16:48;99022.66;;;-13.52;100.00
73103;BME280;61294;65.988;29.172;2024-02-16T01:19:14;99015.50;;;-13.47;100.00
73103;BME280;61294;65.988;29.172;2024-02-16T01:21:40;99013.09;;;-13.46;100.00
73103;BME280;61294;65.988;29.172;2024-02-16T01:24:06;99014.28;;;-13.42;100.00
73103;BME280;61294;65.988;29.172;2024-02-16T01:26:32;99006.06;;;-13.40;100.00
73103;BME280;61294;65.988;29.172;2024-02-16T01:28:58;98972.47;;;-13.65;100.00
73103;BME280;61294;65.988;29.172;2024-02-16T01:31:24;98972.72;;;-13.53;100.00
73103;BME280;61294;65.988;29.172;2024-02-16T01:33:50;98996.38;;;-13.35;100.00
73103;BME280;61294;65.988;29.172;2024-02-16T01:36:15;98997.13;;;-13.36;100.00
73103;BME280;61294;65.988;29.172;2024-02-16T01:38:41;98975.09;;;-13.46;100.00
73103;BME280;61294;65.988;29.172;2024-02-16T01:41:07;98995.31;;;-13.37;100.00
73103;BME280;61294;65.988;29.172;2024-02-16T01:43:34;98989.09;;;-13.41;100.00
73103;BME280;61294;65.988;29.172;2024-02-16T01:46:00;99012.13;;;-13.29;100.00
73103;BME280;61294;65.988;29.172;2024-02-16T01:48:26;98985.06;;;-13.47;100.00
73103;BME280;61294;65.988;29.172;2024-02-16T01:50:53;98969.88;;;-13.47;100.00
73103;BME280;61294;65.988;29.172;2024-02-16T01:53:20;98984.03;;;-13.41;100.00
73103;BME280;61294;65.988;29.172;2024-02-16T01:55:47;98979.56;;;-13.43;100.00
73103;BME280;61294;65.988;29.172;2024-02-16T01:58:13;99021.78;;;-13.25;100.00
73103;BME280;61294;65.988;29.172;2024-02-16T02:00:40;99008.84;;;-13.28;100.00
73103;BME280;61294;65.988;29.172;2024-02-16T02:03:08;99012.81;;;-13.21;100.00
73103;BME280;61294;65.988;29.172;2024-02-16T02:05:43;98996.44;;;-13.25;100.00
73103;BME280;61294;65.988;29.172;2024-02-16T02:08:10;99004.47;;;-13.20;100.00
73103;BME280;61294;65.988;29.172;2024-02-16T02:10:36;98990.00;;;-13.21;100.00
73103;BME280;61294;65.988;29.172;2024-02-16T02:13:02;98999.69;;;-13.17;100.00
73103;BME280;61294;65.988;29.172;2024-02-16T02:15:27;98959.97;;;-13.35;100.00
73103;BME280;61294;65.988;29.172;2024-02-16T02:17:53;98951.34;;;-13.38;100.00
73103;BME280;61294;65.988;29.172;2024-02-16T02:20:19;98961.56;;;-13.27;100.00
73103;BME280;61294;65.988;29.172;2024-02-16T02:22:45;98968.09;;;-13.21;100.00
73103;BME280;61294;65.988;29.172;2024-02-16T02:25:11;98957.97;;;-13.21;100.00
73103;BME280;61294;65.988;29.172;2024-02-16T02:27:37;98959.72;;;-13.20;100.00
73103;BME280;61294;65.988;29.172;2024-02-16T02:30:04;98978.88;;;-13.04;100.00
73103;BME280;61294;65.988;29.172;2024-02-16T02:32:30;98988.44;;;-13.02;100.00
73103;BME280;61294;65.988;29.172;2024-02-16T02:34:56;98972.66;;;-13.08;100.00
73103;BME280;61294;65.988;29.172;2024-02-16T02:37:22;98951.56;;;-13.26;100.00
73103;BME280;61294;65.988;29.172;2024-02-16T02:39:48;98953.75;;;-13.20;100.00
73103;BME280;61294;65.988;29.172;2024-02-16T02:42:14;98990.09;;;-13.02;100.00
73103;BME280;61294;65.988;29.172;2024-02-16T02:44:39;98952.28;;;-13.18;100.00
73103;BME280;61294;65.988;29.172;2024-02-16T02:47:06;98991.09;;;-13.00;100.00
73103;BME280;61294;65.988;29.172;2024-02-16T02:49:31;98979.94;;;-13.02;100.00
73103;BME280;61294;65.988;29.172;2024-02-16T02:52:00;98951.50;;;-13.17;100.00
73103;BME280;61294;65.988;29.172;2024-02-16T02:54:27;98986.31;;;-12.97;100.00
73103;BME280;61294;65.988;29.172;2024-02-16T02:56:53;98993.31;;;-12.94;100.00
73103;BME280;61294;65.988;29.172;2024-02-16T02:59:18;98968.00;;;-13.03;100.00
73103;BME280;61294;65.988;29.172;2024-02-16T03:01:44;98963.81;;;-13.03;100.00
73103;BME280;61294;65.988;29.172;2024-02-16T03:04:11;98944.28;;;-13.04;100.00
73103;BME280;61294;65.988;29.172;2024-02-16T03:06:36;98947.44;;;-13.06;100.00
73103;BME280;61294;65.988;29.172;2024-02-16T03:09:02;98951.91;;;-13.04;100.00
73103;BME280;61294;65.988;29.172;2024-02-16T03:11:28;98973.91;;;-12.94;100.00
73103;BME280;61294;65.988;29.172;2024-02-16T03:13:54;98953.19;;;-12.98;100.00
73103;BME280;61294;65.988;29.172;2024-02-16T03:16:20;98976.22;;;-12.78;100.00
73103;BME280;61294;65.988;29.172;2024-02-16T03:18:45;98949.19;;;-12.96;100.00
73103;BME280;61294;65.988;29.172;2024-02-16T03:21:14;98977.56;;;-12.81;100.00
73103;BME280;61294;65.988;29.172;2024-02-16T03:23:43;98969.34;;;-12.79;100.00
73103;BME280;61294;65.988;29.172;2024-02-16T03:26:16;98977.97;;;-12.77;100.00
73103;BME280;61294;65.988;29.172;2024-02-16T03:28:49;98979.91;;;-12.74;100.00
73103;BME280;61294;65.988;29.172;2024-02-16T03:31:22;98973.03;;;-12.75;100.00
73103;BME280;61294;65.988;29.172;2024-02-16T03:33:49;98981.09;;;-12.71;100.00
73103;BME280;61294;65.988;29.172;2024-02-16T03:36:17;98969.03;;;-12.73;100.00
73103;BME280;61294;65.988;29.172;2024-02-16T03:38:45;98970.34;;;-12.68;100.00
73103;BME280;61294;65.988;29.172;2024-02-16T03:41:13;98970.16;;;-12.61;100.00
73103;BME280;61294;65.988;29.172;2024-02-16T03:43:40;98972.19;;;-12.57;100.00
73103;BME280;61294;65.988;29.172;2024-02-16T03:46:05;98937.06;;;-12.71;100.00
73103;BME280;61294;65.988;29.172;2024-02-16T03:48:31;98983.38;;;-12.55;100.00
73103;BME280;61294;65.988;29.172;2024-02-16T03:50:57;98975.75;;;-12.55;100.00
73103;BME280;61294;65.988;29.172;2024-02-16T03:53:23;98980.38;;;-12.51;100.00
73103;BME280;61294;65.988;29.172;2024-02-16T03:55:49;98981.97;;;-12.42;100.00
73103;BME280;61294;65.988;29.172;2024-02-16T03:58:15;98967.53;;;-12.52;100.00
73103;BME280;61294;65.988;29.172;2024-02-16T04:00:41;98980.44;;;-12.40;100.00
73103;BME280;61294;65.988;29.172;2024-02-16T04:03:06;98978.31;;;-12.36;100.00
73103;BME280;61294;65.988;29.172;2024-02-16T04:05:33;98981.47;;;-12.38;100.00
73103;BME280;61294;65.988;29.172;2024-02-16T04:08:00;98971.13;;;-12.31;100.00
73103;BME280;61294;65.988;29.172;2024-02-16T04:10:29;98977.63;;;-12.24;100.00
73103;BME280;61294;65.988;29.172;2024-02-16T04:12:55;98982.22;;;-12.20;100.00
73103;BME280;61294;65.988;29.172;2024-02-16T04:15:20;98984.00;;;-12.19;100.00
73103;BME280;61294;65.988;29.172;2024-02-16T04:17:46;98979.31;;;-12.15;100.00
73103;BME280;61294;65.988;29.172;2024-02-16T04:20:12;98980.22;;;-12.14;100.00
73103;BME280;61294;65.988;29.172;2024-02-16T04:22:39;98947.75;;;-12.27;100.00
73103;BME280;61294;65.988;29.172;2024-02-16T04:25:05;98941.19;;;-12.25;100.00
73103;BME280;61294;65.988;29.172;2024-02-16T04:27:31;98940.78;;;-12.29;100.00
73103;BME280;61294;65.988;29.172;2024-02-16T04:29:57;98914.22;;;-12.33;100.00
73103;BME280;61294;65.988;29.172;2024-02-16T04:32:23;98960.59;;;-12.06;100.00
73103;BME280;61294;65.988;29.172;2024-02-16T04:34:51;98928.75;;;-12.22;100.00
73103;BME280;61294;65.988;29.172;2024-02-16T04:37:18;98963.41;;;-12.03;100.00
73103;BME280;61294;65.988;29.172;2024-02-16T04:39:47;98957.56;;;-12.02;100.00
73103;BME280;61294;65.988;29.172;2024-02-16T04:42:13;98914.97;;;-12.15;100.00
73103;BME280;61294;65.988;29.172;2024-02-16T04:44:39;98956.03;;;-12.00;100.00
73103;BME280;61294;65.988;29.172;2024-02-16T04:47:05;98944.38;;;-11.98;100.00
73103;BME280;61294;65.988;29.172;2024-02-16T04:49:31;98911.94;;;-12.11;100.00
73103;BME280;61294;65.988;29.172;2024-02-16T04:51:57;98879.50;;;-12.24;100.00
73103;BME280;61294;65.988;29.172;2024-02-16T04:54:23;98932.16;;;-11.92;100.00
73103;BME280;61294;65.988;29.172;2024-02-16T04:56:49;98944.66;;;-11.85;100.00
73103;BME280;61294;65.988;29.172;2024-02-16T04:59:16;98941.34;;;-11.84;100.00
73103;BME280;61294;65.988;29.172;2024-02-16T05:01:43;98941.97;;;-11.86;100.00
73103;BME280;61294;65.988;29.172;2024-02-16T05:04:10;98932.69;;;-11.86;100.00
73103;BME280;61294;65.988;29.172;2024-02-16T05:06:41;98903.41;;;-12.11;100.00
73103;BME280;61294;65.988;29.172;2024-02-16T05:09:07;98897.09;;;-12.06;100.00
73103;BME280;61294;65.988;29.172;2024-02-16T05:11:33;98938.69;;;-11.85;100.00
73103;BME280;61294;65.988;29.172;2024-02-16T05:13:58;98941.50;;;-11.82;100.00
73103;BME280;61294;65.988;29.172;2024-02-16T05:16:25;98938.94;;;-11.82;100.00
73103;BME280;61294;65.988;29.172;2024-02-16T05:18:51;98937.53;;;-11.78;100.00
73103;BME280;61294;65.988;29.172;2024-02-16T05:21:17;98940.88;;;-11.80;100.00
73103;BME280;61294;65.988;29.172;2024-02-16T05:23:42;98911.50;;;-11.96;100.00
73103;BME280;61294;65.988;29.172;2024-02-16T05:26:08;98944.03;;;-11.82;100.00
73103;BME280;61294;65.988;29.172;2024-02-16T05:28:34;98946.84;;;-11.79;100.00
73103;BME280;61294;65.988;29.172;2024-02-16T05:31:16;98928.91;;;-11.81;100.00
73103;BME280;61294;65.988;29.172;2024-02-16T05:33:48;98930.97;;;-11.76;100.00
73103;BME280;61294;65.988;29.172;2024-02-16T05:36:18;98942.13;;;-11.74;100.00
73103;BME280;61294;65.988;29.172;2024-02-16T05:38:48;98939.47;;;-11.76;100.00
73103;BME280;61294;65.988;29.172;2024-02-16T05:41:16;98942.13;;;-11.74;100.00
73103;BME280;61294;65.988;29.172;2024-02-16T05:43:43;98906.28;;;-11.98;100.00
73103;BME280;61294;65.988;29.172;2024-02-16T05:46:16;98933.03;;;-11.72;100.00
73103;BME280;61294;65.988;29.172;2024-02-16T05:48:43;98932.22;;;-11.71;100.00
73103;BME280;61294;65.988;29.172;2024-02-16T05:51:09;98900.56;;;-11.85;100.00
73103;BME280;61294;65.988;29.172;2024-02-16T05:53:38;98902.34;;;-11.84;100.00
73103;BME280;61294;65.988;29.172;2024-02-16T05:56:05;98944.75;;;-11.64;100.00
73103;BME280;61294;65.988;29.172;2024-02-16T05:58:30;98937.13;;;-11.64;100.00
73103;BME280;61294;65.988;29.172;2024-02-16T06:00:56;98938.53;;;-11.57;100.00
73103;BME280;61294;65.988;29.172;2024-02-16T06:03:23;98942.72;;;-11.58;100.00
73103;BME280;61294;65.988;29.172;2024-02-16T06:05:49;98899.44;;;-11.78;100.00
73103;BME280;61294;65.988;29.172;2024-02-16T06:08:15;98940.19;;;-11.58;100.00
73103;BME280;61294;65.988;29.172;2024-02-16T06:10:44;98937.78;;;-11.56;100.00
73103;BME280;61294;65.988;29.172;2024-02-16T06:13:17;98887.63;;;-11.78;100.00
73103;BME280;61294;65.988;29.172;2024-02-16T06:15:43;98938.16;;;-11.52;100.00
73103;BME280;61294;65.988;29.172;2024-02-16T06:18:09;98932.19;;;-11.52;100.00
73103;BME280;61294;65.988;29.172;2024-02-16T06:20:35;98896.81;;;-11.70;100.00
73103;BME280;61294;65.988;29.172;2024-02-16T06:23:00;98894.66;;;-11.65;100.00
73103;BME280;61294;65.988;29.172;2024-02-16T06:25:27;98910.94;;;-11.53;100.00
73103;BME280;61294;65.988;29.172;2024-02-16T06:27:53;98898.22;;;-11.63;100.00
73103;BME280;61294;65.988;29.172;2024-02-16T06:30:18;98923.28;;;-11.47;100.00
73103;BME280;61294;65.988;29.172;2024-02-16T06:32:44;98903.44;;;-11.62;100.00
73103;BME280;61294;65.988;29.172;2024-02-16T06:35:10;98907.00;;;-11.59;100.00
73103;BME280;61294;65.988;29.172;2024-02-16T06:37:36;98934.00;;;-11.41;100.00
73103;BME280;61294;65.988;29.172;2024-02-16T06:40:08;98931.59;;;-11.39;100.00
73103;BME280;61294;65.988;29.172;2024-02-16T06:42:36;98924.31;;;-11.45;100.00
73103;BME280;61294;65.988;29.172;2024-02-16T06:45:02;98932.47;;;-11.39;100.00
73103;BME280;61294;65.988;29.172;2024-02-16T06:47:31;98931.09;;;-11.35;100.00
73103;BME280;61294;65.988;29.172;2024-02-16T06:49:57;98899.66;;;-11.46;100.00
73103;BME280;61294;65.988;29.172;2024-02-16T06:52:23;98945.34;;;-11.27;100.00
73103;BME280;61294;65.988;29.172;2024-02-16T06:54:48;98949.66;;;-11.26;100.00
73103;BME280;61294;65.988;29.172;2024-02-16T06:57:18;98938.88;;;-11.23;100.00
73103;BME280;61294;65.988;29.172;2024-02-16T06:59:45;98934.81;;;-11.21;100.00
73103;BME280;61294;65.988;29.172;2024-02-16T07:02:11;98905.78;;;-11.34;100.00
73103;BME280;61294;65.988;29.172;2024-02-16T07:04:39;98936.06;;;-11.16;100.00
73103;BME280;61294;65.988;29.172;2024-02-16T07:07:04;98903.13;;;-11.35;100.00
73103;BME280;61294;65.988;29.172;2024-02-16T07:09:32;98935.44;;;-11.14;100.00
73103;BME280;61294;65.988;29.172;2024-02-16T07:11:57;98887.38;;;-11.31;100.00
73103;BME280;61294;65.988;29.172;2024-02-16T07:14:24;98934.69;;;-11.02;100.00
73103;BME280;61294;65.988;29.172;2024-02-16T07:16:50;98935.31;;;-11.05;100.00
73103;BME280;61294;65.988;29.172;2024-02-16T07:19:15;98896.13;;;-11.17;100.00
73103;BME280;61294;65.988;29.172;2024-02-16T07:21:41;98923.28;;;-10.97;100.00
73103;BME280;61294;65.988;29.172;2024-02-16T07:24:07;98934.69;;;-10.92;100.00
73103;BME280;61294;65.988;29.172;2024-02-16T07:26:34;98897.66;;;-11.09;100.00
73103;BME280;61294;65.988;29.172;2024-02-16T07:29:01;98893.75;;;-11.05;100.00
73103;BME280;61294;65.988;29.172;2024-02-16T07:31:33;98926.44;;;-10.89;100.00
73103;BME280;61294;65.988;29.172;2024-02-16T07:34:03;98887.13;;;-11.03;100.00
73103;BME280;61294;65.988;29.172;2024-02-16T07:36:29;98922.75;;;-10.83;100.00
73103;BME280;61294;65.988;29.172;2024-02-16T07:38:55;98903.66;;;-10.88;100.00
73103;BME280;61294;65.988;29.172;2024-02-16T07:41:21;98921.59;;;-10.76;100.00
73103;BME280;61294;65.988;29.172;2024-02-16T07:43:46;98921.22;;;-10.81;100.00
73103;BME280;61294;65.988;29.172;2024-02-16T07:46:12;98912.81;;;-10.80;100.00
73103;BME280;61294;65.988;29.172;2024-02-16T07:48:38;98880.00;;;-10.87;100.00
73103;BME280;61294;65.988;29.172;2024-02-16T07:51:04;98870.06;;;-10.84;100.00
73103;BME280;61294;65.988;29.172;2024-02-16T07:53:31;98865.63;;;-10.86;100.00
73103;BME280;61294;65.988;29.172;2024-02-16T07:55:56;98887.59;;;-10.66;100.00
73103;BME280;61294;65.988;29.172;2024-02-16T07:58:23;98893.22;;;-10.60;100.00
73103;BME280;61294;65.988;29.172;2024-02-16T08:00:49;98898.44;;;-10.59;100.00
73103;BME280;61294;65.988;29.172;2024-02-16T08:03:16;98907.31;;;-10.53;100.00
73103;BME280;61294;65.988;29.172;2024-02-16T08:05:42;98867.38;;;-10.65;100.00
73103;BME280;61294;65.988;29.172;2024-02-16T08:08:07;98909.34;;;-10.49;100.00
73103;BME280;61294;65.988;29.172;2024-02-16T08:10:33;98903.00;;;-10.44;100.00
73103;BME280;61294;65.988;29.172;2024-02-16T08:13:01;98896.47;;;-10.41;100.00
73103;BME280;61294;65.988;29.172;2024-02-16T08:15:26;98899.25;;;-10.37;100.00
73103;BME280;61294;65.988;29.172;2024-02-16T08:17:52;98868.63;;;-10.49;100.00
73103;BME280;61294;65.988;29.172;2024-02-16T08:20:18;98905.09;;;-10.28;100.00
73103;BME280;61294;65.988;29.172;2024-02-16T08:22:44;98889.03;;;-10.27;100.00
73103;BME280;61294;65.988;29.172;2024-02-16T08:25:10;98884.94;;;-10.25;100.00
73103;BME280;61294;65.988;29.172;2024-02-16T08:27:36;98855.66;;;-10.30;100.00
73103;BME280;61294;65.988;29.172;2024-02-16T08:30:04;98888.38;;;-10.14;100.00
73103;BME280;61294;65.988;29.172;2024-02-16T08:32:30;98888.47;;;-10.13;100.00
73103;BME280;61294;65.988;29.172;2024-02-16T08:34:55;98884.63;;;-10.08;100.00
73103;BME280;61294;65.988;29.172;2024-02-16T08:37:21;98884.25;;;-10.12;100.00
73103;BME280;61294;65.988;29.172;2024-02-16T08:39:47;98860.75;;;-10.20;100.00
73103;BME280;61294;65.988;29.172;2024-02-16T08:42:13;98868.84;;;-10.14;100.00
73103;BME280;61294;65.988;29.172;2024-02-16T08:44:40;98887.41;;;-9.94;100.00
73103;BME280;61294;65.988;29.172;2024-02-16T08:47:06;98886.88;;;-9.90;100.00
73103;BME280;61294;65.988;29.172;2024-02-16T08:49:35;98889.00;;;-9.84;100.00
73103;BME280;61294;65.988;29.172;2024-02-16T08:52:01;98871.06;;;-9.86;100.00
73103;BME280;61294;65.988;29.172;2024-02-16T08:54:28;98882.72;;;-9.78;100.00
73103;BME280;61294;65.988;29.172;2024-02-16T08:56:54;98887.16;;;-9.75;100.00
73103;BME280;61294;65.988;29.172;2024-02-16T08:59:20;98890.63;;;-9.75;100.00
73103;BME280;61294;65.988;29.172;2024-02-16T09:01:46;98890.88;;;-9.72;100.00
73103;BME280;61294;65.988;29.172;2024-02-16T09:04:12;98851.78;;;-9.82;100.00
73103;BME280;61294;65.988;29.172;2024-02-16T09:06:37;98877.19;;;-9.62;100.00
73103;BME280;61294;65.988;29.172;2024-02-16T09:09:04;98878.28;;;-9.58;100.00
73103;BME280;61294;65.988;29.172;2024-02-16T09:11:32;98875.09;;;-9.56;100.00
73103;BME280;61294;65.988;29.172;2024-02-16T09:13:58;98881.31;;;-9.52;100.00
73103;BME280;61294;65.988;29.172;2024-02-16T09:16:23;98872.13;;;-9.50;100.00
73103;BME280;61294;65.988;29.172;2024-02-16T09:18:49;98872.34;;;-9.47;100.00
73103;BME280;61294;65.988;29.172;2024-02-16T09:21:15;98871.28;;;-9.39;100.00
73103;BME280;61294;65.988;29.172;2024-02-16T09:23:41;98874.59;;;-9.40;100.00
73103;BME280;61294;65.988;29.172;2024-02-16T09:26:07;98892.34;;;-9.41;100.00
73103;BME280;61294;65.988;29.172;2024-02-16T09:28:42;98874.72;;;-9.38;100.00
73103;BME280;61294;65.988;29.172;2024-02-16T09:31:08;98875.06;;;-9.33;100.00
73103;BME280;61294;65.988;29.172;2024-02-16T09:33:34;98875.06;;;-9.33;100.00
73103;BME280;61294;65.988;29.172;2024-02-16T09:36:00;98875.06;;;-9.33;100.00
73103;BME280;61294;65.988;29.172;2024-02-16T09:38:26;58602.63;;;-145.37;100.00
73103;BME280;61294;65.988;29.172;2024-02-16T09:40:52;77425.16;;;-145.37;100.00
73103;BME280;61294;65.988;29.172;2024-02-16T09:43:37;58602.63;;;-145.37;100.00
73103;BME280;61294;65.988;29.172;2024-02-16T09:46:05;58602.63;;;-145.37;100.00
73103;BME280;61294;65.988;29.172;2024-02-16T09:48:30;98875.06;;;-9.33;100.00
73103;BME280;61294;65.988;29.172;2024-02-16T09:50:57;58602.63;;;-145.37;100.00
73103;BME280;61294;65.988;29.172;2024-02-16T09:53:28;58602.63;;;-145.37;65.98
73103;BME280;61294;65.988;29.172;2024-02-16T09:55:54;58602.63;;;-145.37;100.00
73103;BME280;61294;65.988;29.172;2024-02-16T09:58:20;58602.63;;;-145.37;100.00
73103;BME280;61294;65.988;29.172;2024-02-16T10:00:50;58602.63;;;-145.37;100.00
73103;BME280;61294;65.988;29.172;2024-02-16T10:03:46;98875.06;;;-9.33;100.00
73103;BME280;61294;65.988;29.172;2024-02-16T10:06:12;58602.63;;;-145.37;100.00
73103;BME280;61294;65.988;29.172;2024-02-16T10:09:10;58602.63;;;-145.37;100.00
73103;BME280;61294;65.988;29.172;2024-02-16T10:11:37;58602.63;;;-145.37;100.00
73103;BME280;61294;65.988;29.172;2024-02-16T10:14:04;98875.06;;;-9.33;100.00
73103;BME280;61294;65.988;29.172;2024-02-16T10:16:30;98875.06;;;-9.33;100.00
73103;BME280;61294;65.988;29.172;2024-02-16T10:19:06;98875.06;;;-9.33;100.00
73103;BME280;61294;65.988;29.172;2024-02-16T10:21:32;98875.06;;;-9.33;100.00
73103;BME280;61294;65.988;29.172;2024-02-16T10:24:05;98875.06;;;-9.33;100.00
73103;BME280;61294;65.988;29.172;2024-02-16T10:26:34;98875.06;;;-9.33;100.00
73103;BME280;61294;65.988;29.172;2024-02-16T10:29:04;98875.06;;;-9.33;100.00
73103;BME280;61294;65.988;29.172;2024-02-16T10:31:31;98875.06;;;-9.33;100.00
73103;BME280;61294;65.988;29.172;2024-02-16T10:34:02;77425.16;;;-145.37;100.00
73103;BME280;61294;65.988;29.172;2024-02-16T10:36:32;98875.06;;;-9.33;100.00
73103;BME280;61294;65.988;29.172;2024-02-16T10:39:00;98875.06;;;-9.33;100.00
73103;BME280;61294;65.988;29.172;2024-02-16T10:41:33;98875.06;;;-9.33;100.00
73103;BME280;61294;65.988;29.172;2024-02-16T10:44:01;98875.06;;;-9.33;100.00
73103;BME280;61294;65.988;29.172;2024-02-16T10:46:27;98875.06;;;-9.33;100.00
73103;BME280;61294;65.988;29.172;2024-02-16T10:48:53;98839.09;;;-8.69;100.00
73103;BME280;61294;65.988;29.172;2024-02-16T10:51:27;98839.09;;;-8.69;100.00
73103;BME280;61294;65.988;29.172;2024-02-16T10:53:56;98839.09;;;-8.69;100.00
73103;BME280;61294;65.988;29.172;2024-02-16T10:56:31;98839.09;;;-8.69;100.00
73103;BME280;61294;65.988;29.172;2024-02-16T10:59:00;98839.09;;;-8.69;100.00
73103;BME280;61294;65.988;29.172;2024-02-16T11:01:26;98839.09;;;-8.69;100.00
73103;BME280;61294;65.988;29.172;2024-02-16T11:04:00;58602.63;;;-145.37;100.00
73103;BME280;61294;65.988;29.172;2024-02-16T11:06:27;58602.63;;;-145.37;100.00
73103;BME280;61294;65.988;29.172;2024-02-16T11:08:53;58602.63;;;-145.37;100.00
73103;BME280;61294;65.988;29.172;2024-02-16T11:11:23;58602.63;;;-145.37;100.00
73103;BME280;61294;65.988;29.172;2024-02-16T11:13:49;58602.63;;;-145.37;100.00
73103;BME280;61294;65.988;29.172;2024-02-16T11:16:17;58602.63;;;-145.37;100.00
73103;BME280;61294;65.988;29.172;2024-02-16T11:18:45;58602.63;;;-145.37;100.00
73103;BME280;61294;65.988;29.172;2024-02-16T11:21:15;58602.63;;;-145.37;100.00
73103;BME280;61294;65.988;29.172;2024-02-16T11:23:41;58602.63;;;-145.37;100.00
73103;BME280;61294;65.988;29.172;2024-02-16T11:26:12;58602.63;;;-145.37;100.00
73103;BME280;61294;65.988;29.172;2024-02-16T11:28:40;58602.63;;;-145.37;100.00
73103;BME280;61294;65.988;29.172;2024-02-16T11:31:06;58602.63;;;-145.37;100.00
73103;BME280;61294;65.988;29.172;2024-02-16T11:33:35;58602.63;;;-145.37;100.00
73103;BME280;61294;65.988;29.172;2024-02-16T11:36:03;58602.63;;;-145.37;100.00
73103;BME280;61294;65.988;29.172;2024-02-16T11:38:34;58602.63;;;-145.37;100.00
73103;BME280;61294;65.988;29.172;2024-02-16T11:41:05;58602.63;;;-145.37;100.00
73103;BME280;61294;65.988;29.172;2024-02-16T11:43:33;58602.63;;;-145.37;100.00
73103;BME280;61294;65.988;29.172;2024-02-16T11:45:59;58602.63;;;-145.37;100.00
73103;BME280;61294;65.988;29.172;2024-02-16T11:48:26;58602.63;;;-145.37;100.00
73103;BME280;61294;65.988;29.172;2024-02-16T11:51:02;58602.63;;;-145.37;100.00
73103;BME280;61294;65.988;29.172;2024-02-16T11:53:32;58602.63;;;-145.37;100.00
73103;BME280;61294;65.988;29.172;2024-02-16T11:55:58;58602.63;;;-145.37;100.00
73103;BME280;61294;65.988;29.172;2024-02-16T11:58:25;58602.63;;;-145.37;100.00
73103;BME280;61294;65.988;29.172;2024-02-16T12:00:51;58602.63;;;-145.37;100.00
73103;BME280;61294;65.988;29.172;2024-02-16T12:03:25;58602.63;;;-145.37;100.00
73103;BME280;61294;65.988;29.172;2024-02-16T12:05:52;58602.63;;;-145.37;100.00
73103;BME280;61294;65.988;29.172;2024-02-16T12:08:19;58602.63;;;-145.37;100.00
73103;BME280;61294;65.988;29.172;2024-02-16T12:10:47;58602.63;;;-145.37;100.00
73103;BME280;61294;65.988;29.172;2024-02-16T12:13:13;58602.63;;;-145.37;100.00
73103;BME280;61294;65.988;29.172;2024-02-16T12:15:39;58602.63;;;-145.37;100.00
73103;BME280;61294;65.988;29.172;2024-02-16T12:18:05;58602.63;;;-145.37;100.00
73103;BME280;61294;65.988;29.172;2024-02-16T12:20:31;58602.63;;;-145.37;100.00
73103;BME280;61294;65.988;29.172;2024-02-16T12:22:57;58602.63;;;-145.37;100.00
73103;BME280;61294;65.988;29.172;2024-02-16T12:25:25;58602.63;;;-145.37;100.00
73103;BME280;61294;65.988;29.172;2024-02-16T12:27:51;58602.63;;;-145.37;100.00
73103;BME280;61294;65.988;29.172;2024-02-16T12:30:17;58602.63;;;-145.37;100.00